Bay City, TX

10:08 AM CST on February 06, 2016 (GMT -0600)
Oak Creek 2 | | Change Station
CLOSE
Current Station
Personal Weather Station
Location: Van Vleck, TX
Elevation: 62 ft
Nearby Weather Stations

Elev 62 ft 29.04 °N, 95.89 °W | Updated 40 seconds ago

Clear
Clear
54.9 °F
Feels Like 54.9 °F
N
8.1
Wind Variable Wind from WSW
Gusts 9.8 mph

Today
High -- | Low -- °F
--% Chance of Precip.
Yesterday
High -- | Low -- °F
Precip. -- in
Pressure 30.35 in
Visibility 10.0 miles
Clouds Clear
Dew Point 37 °F
Humidity 50%
Rainfall 0.11 in
Snow Depth Not available.
7:09 AM 6:06 PM
Waning Crescent, 5% visible
METAR KBYY 061535Z AUTO 30015G19KT 10SM CLR 12/06 A3035 RMK AO2 T01260072
Pressure 30.35 in
Visibility 10.0 miles
Clouds Clear
Dew Point 37 °F
Humidity 50%
Rainfall 0.11 in
Snow Depth Not available.
7:09 AM 6:06 PM
Waning Crescent, 5% visible
METAR KBYY 061535Z AUTO 30015G19KT 10SM CLR 12/06 A3035 RMK AO2 T01260072

10-Day Weather Forecast

Almanac

Astronomy

Feb. 06, 2016 Rise Set
Actual Time
Civil Twilight
Nautical Twilight
Astronomical Twilight
Moon
Length of Visible Light
Length of Day
Tomorrow will be .
, % of the Moon is Illuminated

Today's Extremes

State Highs State Lows

Community

WunderPhotos

Upload Photos

1,890,997 photos uploaded!

WunderBlog® & News

Nearby

Air Quality

  Air Quality AQ Index Pollutant
Not available.

Snow Depth

Station Depth Elevation

Earthquake Activity

City Distance Mag. Time & Date
Minimum magnitude displayed is 2.5.

Coastal Water Temperatures

Place Temperature

Stations

Nearby Weather Stations

Station Location Temp. Windchill Dew Point Humidity Wind Precip. Elev Updated Type
                   

Watches & Warnings

There are currently no watches in effect.